createdAt,value
2019-05-16T00:01:19.318Z,91.20
2019-05-16T00:03:51.751Z,91.19
2019-05-16T00:06:23.810Z,91.28
2019-05-16T00:08:58.475Z,91.37
2019-05-16T00:11:29.598Z,91.50
2019-05-16T00:14:01.253Z,91.54
2019-05-16T00:16:33.239Z,91.46
2019-05-16T00:19:04.762Z,91.52
2019-05-16T00:21:38.317Z,91.52
2019-05-16T00:24:10.129Z,91.57
2019-05-16T00:26:42.421Z,91.51
2019-05-16T00:29:14.169Z,91.52
2019-05-16T00:31:48.522Z,91.66
2019-05-16T00:34:20.135Z,91.77
2019-05-16T00:36:51.788Z,91.90
2019-05-16T00:39:23.933Z,91.96
2019-05-16T00:41:58.222Z,91.94
2019-05-16T00:44:29.622Z,91.88
2019-05-16T00:47:01.472Z,91.82
2019-05-16T00:49:33.650Z,91.72
2019-05-16T00:52:07.669Z,91.63
2019-05-16T00:54:39.003Z,91.52
2019-05-16T00:57:11.578Z,91.42
2019-05-16T00:59:43.957Z,91.50
2019-05-16T01:02:15.506Z,91.72
2019-05-16T01:04:48.730Z,91.94
2019-05-16T01:07:20.465Z,92.15
2019-05-16T01:09:52.609Z,92.38
2019-05-16T01:12:24.382Z,92.64
2019-05-16T01:14:58.291Z,92.79
2019-05-16T01:17:29.621Z,92.91
2019-05-16T01:20:01.511Z,93.03
2019-05-16T01:22:34.384Z,93.10
2019-05-16T01:25:09.320Z,93.04
2019-05-16T01:27:40.563Z,92.99
2019-05-16T01:30:12.832Z,92.86
2019-05-16T01:32:49.262Z,92.64
2019-05-16T01:35:21.471Z,92.46
2019-05-16T01:37:53.620Z,92.34
2019-05-16T01:40:25.492Z,92.27
2019-05-16T01:42:58.069Z,92.20
2019-05-16T01:45:30.220Z,92.14
2019-05-16T01:48:02.101Z,92.05
2019-05-16T01:50:34.372Z,91.96
2019-05-16T01:53:08.454Z,91.87
2019-05-16T01:55:39.828Z,91.78
2019-05-16T01:58:12.019Z,91.78
2019-05-16T02:00:52.325Z,91.79
2019-05-16T02:03:19.017Z,91.86
2019-05-16T02:05:50.855Z,91.87
2019-05-16T02:08:22.786Z,91.76
2019-05-16T02:10:54.403Z,91.59
2019-05-16T02:13:28.527Z,91.46
2019-05-16T02:15:59.832Z,91.44
2019-05-16T02:18:31.692Z,91.37
2019-05-16T02:21:03.758Z,91.33
2019-05-16T02:23:37.779Z,91.37
2019-05-16T02:26:09.028Z,91.44
2019-05-16T02:28:43.701Z,91.52
2019-05-16T02:31:15.426Z,91.53
2019-05-16T02:33:50.812Z,91.53
2019-05-16T02:36:21.930Z,91.56
2019-05-16T02:38:55.585Z,91.50
2019-05-16T02:41:27.551Z,91.26
2019-05-16T02:44:01.222Z,91.11
2019-05-16T02:46:33.220Z,91.05
2019-05-16T02:49:05.388Z,91.07
2019-05-16T02:51:40.404Z,91.12
2019-05-16T02:54:11.221Z,91.19
2019-05-16T02:56:52.822Z,91.25
2019-05-16T02:59:24.702Z,91.29
2019-05-16T03:01:56.475Z,91.16
2019-05-16T03:04:30.655Z,90.91
2019-05-16T03:07:03.239Z,90.54
2019-05-16T03:09:36.069Z,90.16
2019-05-16T03:12:10.572Z,89.86
2019-05-16T03:14:42.006Z,89.64
2019-05-16T03:17:15.719Z,89.39
2019-05-16T03:19:51.071Z,89.22
2019-05-16T03:22:24.741Z,89.11
2019-05-16T03:24:56.805Z,88.92
2019-05-16T03:27:30.595Z,88.76
2019-05-16T03:30:02.687Z,88.61
2019-05-16T03:32:34.888Z,88.41
2019-05-16T03:35:07.956Z,88.15
2019-05-16T03:37:54.493Z,87.99
2019-05-16T03:40:27.264Z,87.74
2019-05-16T03:43:01.657Z,87.57
2019-05-16T03:45:33.746Z,87.50
2019-05-16T03:48:05.492Z,87.54
2019-05-16T03:50:37.139Z,87.57
2019-05-16T03:53:11.730Z,87.54
2019-05-16T03:55:42.187Z,87.38
2019-05-16T03:58:14.254Z,87.41
2019-05-16T04:00:55.069Z,87.42
2019-05-16T04:03:28.803Z,87.42
2019-05-16T04:06:01.646Z,87.31
2019-05-16T04:08:33.691Z,87.30
2019-05-16T04:11:05.542Z,87.36
2019-05-16T04:13:40.812Z,87.00
2019-05-16T04:16:11.850Z,86.67
2019-05-16T04:18:43.993Z,86.31
2019-05-16T04:21:17.723Z,86.00
2019-05-16T04:23:50.517Z,85.56
2019-05-16T04:26:22.553Z,85.17
2019-05-16T04:28:54.707Z,84.79
2019-05-16T04:31:26.670Z,84.49
2019-05-16T04:34:01.130Z,83.97
2019-05-16T04:36:32.661Z,83.33
2019-05-16T04:39:06.435Z,82.51
2019-05-16T04:41:40.911Z,81.82
2019-05-16T04:44:12.004Z,80.52
2019-05-16T04:46:43.713Z,79.39
2019-05-16T04:49:15.334Z,78.37
2019-05-16T04:51:47.038Z,75.49
2019-05-16T04:54:21.518Z,74.57
2019-05-16T04:56:52.250Z,74.49
2019-05-16T04:59:24.011Z,74.48
2019-05-16T05:01:57.306Z,73.96
2019-05-16T05:04:30.632Z,73.56
2019-05-16T05:07:02.733Z,73.71
2019-05-16T05:09:34.515Z,73.31
2019-05-16T05:12:06.146Z,72.68
2019-05-16T05:14:41.324Z,72.55
2019-05-16T05:17:11.619Z,71.85
2019-05-16T05:19:43.688Z,71.46
2019-05-16T05:22:15.650Z,71.31
2019-05-16T05:24:50.817Z,69.89
2019-05-16T05:27:22.551Z,69.15
2019-05-16T05:29:55.725Z,68.87
2019-05-16T05:32:27.581Z,68.87
2019-05-16T05:34:59.981Z,66.80
2019-05-16T05:37:31.914Z,67.23
2019-05-16T05:40:05.474Z,67.64
2019-05-16T05:42:39.771Z,66.84
2019-05-16T05:45:11.875Z,66.65
2019-05-16T05:47:43.878Z,64.15
2019-05-16T05:50:15.828Z,64.74
2019-05-16T05:52:47.583Z,64.98
2019-05-16T05:55:20.192Z,64.14
2019-05-16T05:57:51.934Z,64.31
2019-05-16T06:00:24.099Z,62.62
2019-05-16T06:02:56.165Z,62.38
2019-05-16T06:05:30.444Z,63.14
2019-05-16T06:08:01.645Z,63.23
2019-05-16T06:10:33.586Z,62.40
2019-05-16T06:13:05.532Z,61.49
2019-05-16T06:15:37.209Z,60.89
2019-05-16T06:18:10.819Z,59.50
2019-05-16T06:20:42.650Z,60.68
2019-05-16T06:23:14.529Z,60.90
2019-05-16T06:25:46.595Z,59.38
2019-05-16T06:28:20.689Z,60.05
2019-05-16T06:30:52.777Z,59.74
2019-05-16T06:33:24.736Z,58.99
2019-05-16T06:35:56.373Z,58.56
2019-05-16T06:38:29.862Z,57.99
2019-05-16T06:41:01.424Z,57.80
2019-05-16T06:43:33.755Z,57.54
2019-05-16T06:46:05.780Z,56.71
2019-05-16T06:48:39.808Z,56.83
2019-05-16T06:51:11.239Z,57.41
2019-05-16T06:53:43.287Z,55.82
2019-05-16T06:56:15.168Z,55.58
2019-05-16T06:58:50.970Z,56.20
2019-05-16T07:01:21.010Z,55.33
2019-05-16T07:03:52.995Z,52.78
2019-05-16T07:06:47.659Z,53.39
2019-05-16T07:09:01.028Z,54.54
2019-05-16T07:11:34.610Z,55.02
2019-05-16T07:14:06.892Z,54.16
2019-05-16T07:16:41.309Z,54.19
2019-05-16T07:19:13.081Z,51.81
2019-05-16T07:21:44.915Z,50.18
2019-05-16T07:24:17.113Z,49.91
2019-05-16T07:26:50.131Z,48.22
2019-05-16T07:29:22.045Z,48.20
2019-05-16T07:31:53.906Z,50.05
2019-05-16T07:34:25.771Z,48.60
2019-05-16T07:37:00.326Z,48.27
2019-05-16T07:39:31.050Z,48.27
2019-05-16T07:42:03.305Z,48.68
2019-05-16T07:44:35.346Z,48.18
2019-05-16T07:47:11.079Z,47.98
2019-05-16T07:49:42.140Z,48.41
2019-05-16T07:52:13.991Z,48.36
2019-05-16T07:54:45.772Z,47.63
2019-05-16T07:57:20.458Z,48.20
2019-05-16T07:59:50.685Z,48.80
2019-05-16T08:02:22.463Z,47.39
2019-05-16T08:04:54.221Z,46.48
2019-05-16T08:07:26.210Z,45.66
2019-05-16T08:09:59.898Z,46.14
2019-05-16T08:12:33.063Z,43.55
2019-05-16T08:15:07.003Z,41.87
2019-05-16T08:17:44.185Z,42.09
2019-05-16T08:20:11.765Z,42.29
2019-05-16T08:22:44.136Z,41.62
2019-05-16T08:25:16.204Z,41.39
2019-05-16T08:27:51.691Z,41.53
2019-05-16T08:30:21.458Z,42.74
2019-05-16T08:32:53.429Z,42.04
2019-05-16T08:35:25.374Z,42.08
2019-05-16T08:38:00.818Z,42.07
2019-05-16T08:40:31.643Z,42.19
2019-05-16T08:43:03.324Z,41.80
2019-05-16T08:45:35.570Z,43.54
2019-05-16T08:48:07.329Z,43.04
2019-05-16T08:50:42.086Z,44.52
2019-05-16T08:53:13.737Z,44.11
2019-05-16T08:55:45.352Z,43.58
2019-05-16T08:58:17.296Z,42.74
2019-05-16T09:00:55.325Z,43.55
2019-05-16T09:03:24.647Z,42.49
2019-05-16T09:05:56.305Z,43.18
2019-05-16T09:08:28.138Z,43.49
2019-05-16T09:11:04.850Z,44.91
2019-05-16T09:13:33.515Z,45.34
2019-05-16T09:16:07.722Z,45.52
2019-05-16T09:18:41.300Z,43.14
2019-05-16T09:21:12.156Z,43.05
2019-05-16T09:23:43.691Z,43.56
2019-05-16T09:26:18.987Z,45.03
2019-05-16T09:28:49.018Z,43.11
2019-05-16T09:31:21.066Z,43.23
2019-05-16T09:33:53.013Z,42.20
2019-05-16T09:36:27.767Z,43.35
2019-05-16T09:38:58.362Z,44.34
2019-05-16T09:41:44.889Z,44.29
2019-05-16T09:44:03.830Z,45.41
2019-05-16T09:46:37.590Z,44.52
2019-05-16T09:49:19.570Z,44.76
2019-05-16T09:51:42.394Z,45.88
2019-05-16T09:54:16.557Z,46.49
2019-05-16T09:56:46.837Z,45.53
2019-05-16T09:59:18.476Z,44.86
2019-05-16T10:01:50.312Z,43.37
2019-05-16T10:04:22.497Z,43.57
2019-05-16T10:06:57.026Z,44.69
2019-05-16T10:09:41.277Z,43.54
2019-05-16T10:12:11.373Z,44.30
2019-05-16T10:14:37.630Z,45.48
2019-05-16T10:17:10.907Z,45.22
2019-05-16T10:19:42.778Z,44.40
2019-05-16T10:22:16.900Z,44.14
2019-05-16T10:24:47.924Z,45.06
2019-05-16T10:27:19.780Z,42.66
2019-05-16T10:29:51.547Z,43.30
2019-05-16T10:32:23.402Z,42.22
2019-05-16T10:34:57.261Z,42.93
2019-05-16T10:37:29.159Z,41.85
2019-05-16T10:40:01.222Z,42.63
2019-05-16T10:42:33.305Z,41.79
2019-05-16T10:45:08.591Z,41.26
2019-05-16T10:47:41.047Z,41.03
2019-05-16T10:50:13.988Z,41.00
2019-05-16T10:52:48.843Z,41.22
2019-05-16T10:55:19.913Z,40.75
2019-05-16T10:57:51.915Z,41.25
2019-05-16T11:00:57.549Z,40.53
2019-05-16T11:03:00.713Z,40.01
2019-05-16T11:05:36.035Z,41.25
2019-05-16T11:08:08.246Z,40.07
2019-05-16T11:10:39.656Z,40.92
2019-05-16T11:13:11.583Z,40.49
2019-05-16T11:15:43.660Z,41.06
2019-05-16T11:18:17.553Z,41.25
2019-05-16T11:20:49.702Z,40.71
2019-05-16T11:23:23.724Z,38.48
2019-05-16T11:25:55.481Z,38.92
2019-05-16T11:28:27.872Z,40.64
2019-05-16T11:31:03.510Z,41.38
2019-05-16T11:33:32.232Z,41.47
2019-05-16T11:36:08.040Z,39.67
2019-05-16T11:38:39.631Z,40.41
2019-05-16T11:41:11.797Z,39.97
2019-05-16T11:43:43.753Z,40.76
2019-05-16T11:46:16.677Z,39.29
2019-05-16T11:48:49.205Z,39.07
2019-05-16T11:51:21.179Z,40.44
2019-05-16T11:53:53.138Z,39.58
2019-05-16T11:56:25.312Z,38.85
2019-05-16T11:58:57.152Z,39.45
2019-05-16T12:01:29.233Z,40.40
2019-05-16T12:04:01.305Z,39.10
2019-05-16T12:06:33.054Z,39.28
2019-05-16T12:44:16.517Z,39.93
2019-05-16T12:46:48.595Z,40.62
2019-05-16T12:49:23.726Z,41.35
2019-05-16T12:52:00.400Z,41.65
2019-05-16T12:54:36.872Z,40.24
2019-05-16T12:57:04.868Z,41.20
2019-05-16T12:59:42.233Z,40.91
2019-05-16T13:02:13.507Z,40.46
2019-05-16T13:04:47.065Z,40.92
2019-05-16T13:07:22.190Z,40.44
2019-05-16T13:09:53.950Z,40.49
2019-05-16T13:12:27.111Z,39.83
2019-05-16T13:14:59.111Z,40.45
2019-05-16T13:17:30.977Z,41.25
2019-05-16T13:20:03.140Z,40.34
2019-05-16T13:22:47.320Z,39.71
2019-05-16T13:25:21.434Z,39.19
2019-05-16T13:27:52.848Z,38.80
2019-05-16T13:30:26.808Z,37.72
2019-05-16T13:32:58.718Z,36.85
2019-05-16T13:35:30.300Z,36.33
2019-05-16T13:38:02.150Z,35.95
2019-05-16T13:40:33.891Z,35.35
2019-05-16T13:43:17.408Z,34.96
2019-05-16T13:45:49.301Z,35.82
2019-05-16T13:48:21.366Z,34.55
2019-05-16T13:51:07.570Z,34.14
2019-05-16T13:53:27.151Z,33.92
2019-05-16T13:55:59.079Z,34.61
2019-05-16T13:58:30.937Z,34.48
2019-05-16T14:01:02.829Z,34.33
2019-05-16T14:03:37.209Z,33.53
2019-05-16T14:06:08.176Z,33.75
2019-05-16T14:08:40.022Z,33.14
2019-05-16T14:11:17.162Z,32.75
2019-05-16T14:13:48.163Z,33.22
2019-05-16T14:16:23.505Z,33.54
2019-05-16T14:18:57.418Z,33.17
2019-05-16T14:21:29.175Z,33.67
2019-05-16T14:24:01.237Z,34.01
2019-05-16T14:26:33.412Z,34.54
2019-05-16T14:29:07.914Z,35.09
2019-05-16T14:31:38.763Z,35.39
2019-05-16T14:34:10.613Z,35.33
2019-05-16T14:36:42.686Z,35.79
2019-05-16T14:39:18.915Z,36.13
2019-05-16T14:41:48.208Z,35.39
2019-05-16T14:44:21.424Z,35.47
2019-05-16T14:46:53.134Z,34.42
2019-05-16T14:49:28.472Z,34.19
2019-05-16T14:51:58.232Z,34.56
2019-05-16T14:54:29.821Z,34.13
2019-05-16T14:57:01.881Z,32.57
2019-05-16T14:59:36.343Z,33.04
2019-05-16T15:02:07.724Z,32.30
2019-05-16T15:04:39.386Z,31.80
2019-05-16T15:07:11.042Z,31.28
2019-05-16T15:09:42.769Z,31.01
2019-05-16T15:12:14.396Z,31.53
2019-05-16T15:14:46.059Z,31.92
2019-05-16T15:17:17.716Z,31.44
2019-05-16T15:19:49.453Z,30.99
2019-05-16T15:22:21.084Z,30.93
2019-05-16T15:24:52.722Z,30.32
2019-05-16T15:27:26.287Z,30.94
2019-05-16T15:29:58.251Z,30.57
2019-05-16T15:32:31.774Z,31.39
2019-05-16T15:35:03.556Z,30.63
2019-05-16T15:37:37.325Z,30.15
2019-05-16T15:40:10.704Z,30.44
2019-05-16T15:42:42.526Z,29.87
2019-05-16T15:45:17.635Z,29.76
2019-05-16T15:47:48.521Z,30.24
2019-05-16T15:50:21.779Z,30.55
2019-05-16T15:52:58.987Z,30.21
2019-05-16T15:55:27.343Z,31.01
2019-05-16T15:57:59.118Z,30.64
2019-05-16T16:00:48.912Z,30.78
2019-05-16T16:03:20.860Z,31.38
2019-05-16T16:05:52.706Z,31.47
2019-05-16T16:08:28.169Z,31.24
2019-05-16T16:10:58.367Z,31.37
2019-05-16T16:13:30.535Z,31.77
2019-05-16T16:16:02.725Z,32.97
2019-05-16T16:18:34.428Z,33.57
2019-05-16T16:21:07.562Z,34.59
2019-05-16T16:23:38.734Z,34.68
2019-05-16T16:26:10.457Z,35.36
2019-05-16T16:28:43.956Z,35.63
2019-05-16T16:31:17.026Z,36.38
2019-05-16T16:33:50.048Z,37.36
2019-05-16T16:36:48.564Z,38.43
2019-05-16T16:39:26.683Z,39.89
2019-05-16T16:41:57.079Z,41.66
2019-05-16T16:44:28.521Z,43.07
2019-05-16T16:47:02.029Z,43.60
2019-05-16T16:49:39.867Z,44.09
2019-05-16T16:52:09.306Z,45.22
2019-05-16T16:54:41.278Z,45.58
2019-05-16T16:57:13.336Z,46.22
2019-05-16T16:59:47.649Z,47.56
2019-05-16T17:02:18.921Z,47.56
2019-05-16T17:04:51.889Z,47.62
2019-05-16T17:07:27.326Z,48.29
2019-05-16T17:10:00.538Z,48.91
2019-05-16T17:12:33.817Z,49.15
2019-05-16T17:15:10.142Z,49.38
2019-05-16T17:17:41.847Z,49.58
2019-05-16T17:20:14.747Z,50.02
2019-05-16T17:22:46.820Z,50.39
2019-05-16T17:25:18.964Z,50.64
2019-05-16T17:27:52.714Z,50.73
2019-05-16T17:30:27.806Z,51.18
2019-05-16T17:33:01.207Z,51.41
2019-05-16T17:35:33.167Z,51.84
2019-05-16T17:38:07.812Z,52.29
2019-05-16T17:40:39.962Z,52.68
2019-05-16T17:43:11.922Z,53.15
2019-05-16T17:45:44.001Z,53.47
2019-05-16T17:48:17.599Z,53.77
2019-05-16T17:50:48.855Z,54.30
2019-05-16T17:53:20.474Z,54.75
2019-05-16T17:55:52.657Z,54.77
2019-05-16T17:58:26.916Z,55.14
2019-05-16T18:01:00.393Z,55.44
2019-05-16T18:03:31.437Z,55.73
2019-05-16T18:06:03.159Z,55.95
2019-05-16T18:08:36.837Z,56.24
2019-05-16T18:11:08.204Z,56.60
2019-05-16T18:13:39.879Z,56.89
2019-05-16T18:16:14.706Z,57.34
2019-05-16T18:18:49.426Z,57.39
2019-05-16T18:21:21.388Z,57.51
2019-05-16T18:23:53.347Z,57.87
2019-05-16T18:26:26.892Z,58.13
2019-05-16T18:28:58.830Z,58.43
2019-05-16T18:31:32.267Z,58.64
2019-05-16T18:34:04.269Z,58.85
2019-05-16T18:36:35.924Z,59.03
2019-05-16T18:39:08.723Z,59.25
2019-05-16T18:41:43.556Z,59.41
2019-05-16T18:44:16.661Z,59.67
2019-05-16T18:46:48.505Z,59.87
2019-05-16T18:49:24.104Z,60.23
2019-05-16T18:51:57.051Z,60.42
2019-05-16T18:54:29.116Z,60.94
2019-05-16T18:57:02.279Z,61.34
2019-05-16T18:59:36.862Z,61.58
2019-05-16T19:02:11.834Z,61.81
2019-05-16T19:04:46.526Z,62.20
2019-05-16T19:07:18.847Z,62.64
2019-05-16T19:09:50.998Z,63.14
2019-05-16T19:12:22.979Z,63.75
2019-05-16T19:14:57.181Z,64.28
2019-05-16T19:17:28.530Z,64.94
2019-05-16T19:20:00.489Z,65.66
2019-05-16T19:22:32.365Z,66.14
2019-05-16T19:25:06.959Z,66.66
2019-05-16T19:27:39.135Z,67.14
2019-05-16T19:30:12.051Z,67.61
2019-05-16T19:32:46.715Z,68.02
2019-05-16T19:35:20.355Z,68.22
2019-05-16T19:37:52.366Z,68.47
2019-05-16T19:40:25.979Z,68.51
2019-05-16T19:42:57.696Z,68.62
2019-05-16T19:45:29.743Z,68.91
2019-05-16T19:48:02.135Z,69.27
2019-05-16T19:50:37.425Z,69.46
2019-05-16T19:53:09.430Z,69.70
2019-05-16T19:55:42.843Z,69.65
2019-05-16T19:58:18.077Z,69.68
2019-05-16T20:00:52.699Z,69.87
2019-05-16T20:03:27.027Z,70.23
2019-05-16T20:05:58.159Z,70.61
2019-05-16T20:08:31.554Z,70.88
2019-05-16T20:11:03.604Z,71.15
2019-05-16T20:13:36.731Z,71.51
2019-05-16T20:16:08.572Z,71.84
2019-05-16T20:18:40.631Z,72.17
2019-05-16T20:21:12.701Z,72.53
2019-05-16T20:23:44.564Z,72.76
2019-05-16T20:26:16.872Z,72.94
2019-05-16T20:28:48.875Z,73.11
2019-05-16T20:31:20.766Z,73.20
2019-05-16T20:33:52.498Z,73.20
2019-05-16T20:36:26.425Z,73.31
2019-05-16T20:38:58.162Z,73.69
2019-05-16T20:41:30.348Z,73.55
2019-05-16T20:44:02.305Z,73.60
2019-05-16T20:46:34.370Z,73.87
2019-05-16T20:52:24.043Z,74.44
2019-05-16T20:54:57.870Z,74.75
2019-05-16T20:57:29.096Z,74.95
2019-05-16T21:00:01.167Z,74.89
2019-05-16T21:02:33.223Z,74.70
2019-05-16T21:05:06.697Z,74.63
2019-05-16T21:07:38.274Z,74.63
2019-05-16T21:10:10.239Z,74.54
2019-05-16T21:12:42.948Z,74.80
2019-05-16T21:15:16.986Z,74.68
2019-05-16T21:17:48.073Z,74.78
2019-05-16T21:20:19.934Z,74.72
2019-05-16T21:22:51.592Z,75.04
2019-05-16T21:25:23.447Z,74.92
2019-05-16T21:27:57.301Z,75.06
2019-05-16T21:30:28.611Z,75.13
2019-05-16T21:33:00.473Z,75.14
2019-05-16T21:35:32.460Z,75.27
2019-05-16T21:38:08.585Z,75.38
2019-05-16T21:40:37.738Z,75.66
2019-05-16T21:43:09.548Z,75.75
2019-05-16T21:45:41.412Z,75.83
2019-05-16T21:48:13.354Z,75.88
2019-05-16T21:50:46.357Z,76.02
2019-05-16T21:53:18.316Z,76.22
2019-05-16T21:55:49.972Z,76.35
2019-05-16T21:58:21.735Z,76.58
2019-05-16T22:00:56.839Z,76.86
2019-05-16T22:03:28.286Z,77.11
2019-05-16T22:06:00.080Z,76.99
2019-05-16T22:08:32.856Z,77.18
2019-05-16T22:11:06.790Z,77.54
2019-05-16T22:13:39.693Z,77.59
2019-05-16T22:16:11.625Z,77.81
2019-05-16T22:18:44.049Z,77.99
2019-05-16T22:21:16.734Z,78.04
2019-05-16T22:23:48.596Z,77.99
2019-05-16T22:26:20.805Z,77.79
2019-05-16T22:28:52.661Z,77.73
2019-05-16T22:31:26.935Z,77.81
2019-05-16T22:33:58.702Z,77.59
2019-05-16T22:36:30.694Z,77.62
2019-05-16T22:39:02.657Z,77.79
2019-05-16T22:41:37.191Z,77.90
2019-05-16T22:44:09.083Z,78.04
2019-05-16T22:46:40.729Z,78.28
2019-05-16T22:49:12.571Z,78.51
2019-05-16T22:51:44.443Z,78.74
2019-05-16T22:54:17.201Z,79.03
2019-05-16T22:56:48.789Z,79.27
2019-05-16T22:59:20.597Z,79.34
2019-05-16T23:01:52.593Z,79.56
2019-05-16T23:04:24.436Z,79.60
2019-05-16T23:06:57.012Z,79.52
2019-05-16T23:09:28.773Z,79.71
2019-05-16T23:12:00.473Z,79.89
2019-05-16T23:14:32.387Z,79.99
2019-05-16T23:17:06.494Z,80.11
2019-05-16T23:19:37.845Z,80.16
2019-05-16T23:22:09.712Z,80.29
2019-05-16T23:24:42.492Z,80.33
2019-05-16T23:27:14.032Z,80.53
2019-05-16T23:29:47.443Z,80.66
2019-05-16T23:32:20.119Z,80.82
2019-05-16T23:34:52.362Z,80.86
2019-05-16T23:37:24.259Z,80.86
2019-05-16T23:39:56.870Z,81.02
2019-05-16T23:42:28.592Z,81.33
2019-05-16T23:45:00.244Z,81.47
2019-05-16T23:47:31.763Z,81.66
2019-05-16T23:50:07.596Z,81.65
2019-05-16T23:52:39.102Z,81.81
2019-05-16T23:55:11.181Z,81.89
2019-05-16T23:57:42.678Z,81.96
